sensor_id;sensor_type;location;lat;lon;timestamp;P1;durP1;ratioP1;P2;durP2;ratioP2
64210;SDS011;50528;48.514;14.394;2022-08-04T00:00:31;5.60;;;3.10;;
64210;SDS011;50528;48.514;14.394;2022-08-04T00:03:11;4.00;;;3.00;;
64210;SDS011;50528;48.514;14.394;2022-08-04T00:05:51;5.80;;;3.20;;
64210;SDS011;50528;48.514;14.394;2022-08-04T00:08:52;6.30;;;3.10;;
64210;SDS011;50528;48.514;14.394;2022-08-04T00:10:04;4.20;;;3.00;;
64210;SDS011;50528;48.514;14.394;2022-08-04T00:11:09;6.40;;;3.00;;
64210;SDS011;50528;48.514;14.394;2022-08-04T00:12:17;5.60;;;3.00;;
64210;SDS011;50528;48.514;14.394;2022-08-04T00:13:33;5.40;;;2.80;;
64210;SDS011;50528;48.514;14.394;2022-08-04T00:15:07;4.80;;;3.00;;
64210;SDS011;50528;48.514;14.394;2022-08-04T00:16:18;4.10;;;3.10;;
64210;SDS011;50528;48.514;14.394;2022-08-04T00:17:35;6.90;;;3.10;;
64210;SDS011;50528;48.514;14.394;2022-08-04T00:18:45;5.10;;;3.10;;
64210;SDS011;50528;48.514;14.394;2022-08-04T00:19:55;5.40;;;3.10;;
64210;SDS011;50528;48.514;14.394;2022-08-04T00:21:06;4.60;;;2.80;;
64210;SDS011;50528;48.514;14.394;2022-08-04T00:22:17;5.20;;;2.80;;
64210;SDS011;50528;48.514;14.394;2022-08-04T00:23:24;5.20;;;3.00;;
64210;SDS011;50528;48.514;14.394;2022-08-04T00:24:48;4.30;;;3.20;;
64210;SDS011;50528;48.514;14.394;2022-08-04T00:25:52;7.40;;;2.90;;
64210;SDS011;50528;48.514;14.394;2022-08-04T00:26:55;3.50;;;2.70;;
64210;SDS011;50528;48.514;14.394;2022-08-04T00:27:59;3.50;;;2.70;;
64210;SDS011;50528;48.514;14.394;2022-08-04T00:29:04;4.80;;;2.80;;
64210;SDS011;50528;48.514;14.394;2022-08-04T00:30:09;4.20;;;2.70;;
64210;SDS011;50528;48.514;14.394;2022-08-04T00:31:13;4.10;;;3.00;;
64210;SDS011;50528;48.514;14.394;2022-08-04T00:32:20;7.50;;;3.20;;
64210;SDS011;50528;48.514;14.394;2022-08-04T00:33:36;5.00;;;3.00;;
64210;SDS011;50528;48.514;14.394;2022-08-04T00:34:43;5.00;;;3.00;;
64210;SDS011;50528;48.514;14.394;2022-08-04T00:35:48;5.30;;;3.10;;
64210;SDS011;50528;48.514;14.394;2022-08-04T00:36:52;6.70;;;2.90;;
64210;SDS011;50528;48.514;14.394;2022-08-04T00:37:57;5.80;;;3.00;;
64210;SDS011;50528;48.514;14.394;2022-08-04T00:39:01;4.90;;;3.30;;
64210;SDS011;50528;48.514;14.394;2022-08-04T00:40:15;6.60;;;3.60;;
64210;SDS011;50528;48.514;14.394;2022-08-04T00:44:06;4.50;;;3.30;;
64210;SDS011;50528;48.514;14.394;2022-08-04T00:45:38;4.30;;;3.30;;
64210;SDS011;50528;48.514;14.394;2022-08-04T00:48:44;5.30;;;3.60;;
64210;SDS011;50528;48.514;14.394;2022-08-04T00:57:22;4.80;;;3.00;;
64210;SDS011;50528;48.514;14.394;2022-08-04T01:00:06;4.70;;;3.40;;
64210;SDS011;50528;48.514;14.394;2022-08-04T01:01:20;6.50;;;3.40;;
64210;SDS011;50528;48.514;14.394;2022-08-04T01:02:34;4.50;;;3.30;;
64210;SDS011;50528;48.514;14.394;2022-08-04T01:05:04;4.80;;;3.30;;
64210;SDS011;50528;48.514;14.394;2022-08-04T01:16:07;4.70;;;3.40;;
64210;SDS011;50528;48.514;14.394;2022-08-04T01:23:41;4.90;;;3.10;;
64210;SDS011;50528;48.514;14.394;2022-08-04T01:26:01;5.00;;;3.60;;
64210;SDS011;50528;48.514;14.394;2022-08-04T01:29:22;4.10;;;3.20;;
64210;SDS011;50528;48.514;14.394;2022-08-04T01:30:35;4.60;;;2.90;;
64210;SDS011;50528;48.514;14.394;2022-08-04T01:33:03;5.70;;;2.90;;
64210;SDS011;50528;48.514;14.394;2022-08-04T01:34:15;6.60;;;3.10;;
64210;SDS011;50528;48.514;14.394;2022-08-04T01:35:24;4.90;;;2.90;;
64210;SDS011;50528;48.514;14.394;2022-08-04T01:36:56;4.80;;;2.90;;
64210;SDS011;50528;48.514;14.394;2022-08-04T01:38:08;4.90;;;2.90;;
64210;SDS011;50528;48.514;14.394;2022-08-04T01:39:23;6.70;;;3.10;;
64210;SDS011;50528;48.514;14.394;2022-08-04T01:40:43;4.40;;;2.80;;
64210;SDS011;50528;48.514;14.394;2022-08-04T01:41:48;3.90;;;3.10;;
64210;SDS011;50528;48.514;14.394;2022-08-04T01:43:03;3.40;;;3.00;;
64210;SDS011;50528;48.514;14.394;2022-08-04T01:44:06;5.50;;;3.00;;
64210;SDS011;50528;48.514;14.394;2022-08-04T01:45:12;4.40;;;3.10;;
64210;SDS011;50528;48.514;14.394;2022-08-04T01:46:16;4.70;;;3.00;;
64210;SDS011;50528;48.514;14.394;2022-08-04T01:47:20;4.60;;;3.30;;
64210;SDS011;50528;48.514;14.394;2022-08-04T01:48:26;5.90;;;3.00;;
64210;SDS011;50528;48.514;14.394;2022-08-04T01:49:31;4.20;;;3.00;;
64210;SDS011;50528;48.514;14.394;2022-08-04T01:50:42;5.20;;;3.40;;
64210;SDS011;50528;48.514;14.394;2022-08-04T01:51:55;6.30;;;3.20;;
64210;SDS011;50528;48.514;14.394;2022-08-04T01:52:59;5.40;;;3.20;;
64210;SDS011;50528;48.514;14.394;2022-08-04T01:54:04;6.20;;;3.30;;
64210;SDS011;50528;48.514;14.394;2022-08-04T01:55:09;5.30;;;3.10;;
64210;SDS011;50528;48.514;14.394;2022-08-04T01:56:14;4.00;;;2.90;;
64210;SDS011;50528;48.514;14.394;2022-08-04T01:57:17;3.70;;;3.10;;
64210;SDS011;50528;48.514;14.394;2022-08-04T01:58:40;5.10;;;3.10;;
64210;SDS011;50528;48.514;14.394;2022-08-04T01:59:46;8.70;;;3.20;;
64210;SDS011;50528;48.514;14.394;2022-08-04T02:02:10;3.40;;;3.00;;
64210;SDS011;50528;48.514;14.394;2022-08-04T02:03:13;5.50;;;3.30;;
64210;SDS011;50528;48.514;14.394;2022-08-04T02:04:17;8.80;;;3.80;;
64210;SDS011;50528;48.514;14.394;2022-08-04T02:05:25;5.90;;;3.50;;
64210;SDS011;50528;48.514;14.394;2022-08-04T02:08:35;5.80;;;3.40;;
64210;SDS011;50528;48.514;14.394;2022-08-04T02:11:06;4.60;;;3.30;;
64210;SDS011;50528;48.514;14.394;2022-08-04T02:14:18;4.00;;;3.20;;
64210;SDS011;50528;48.514;14.394;2022-08-04T02:16:58;4.80;;;3.40;;
64210;SDS011;50528;48.514;14.394;2022-08-04T02:18:03;4.60;;;3.20;;
64210;SDS011;50528;48.514;14.394;2022-08-04T02:20:24;3.70;;;3.20;;
64210;SDS011;50528;48.514;14.394;2022-08-04T02:21:50;4.20;;;3.00;;
64210;SDS011;50528;48.514;14.394;2022-08-04T02:23:03;4.10;;;3.00;;
64210;SDS011;50528;48.514;14.394;2022-08-04T02:24:10;5.60;;;3.00;;
64210;SDS011;50528;48.514;14.394;2022-08-04T02:25:18;5.30;;;2.90;;
64210;SDS011;50528;48.514;14.394;2022-08-04T02:26:27;5.30;;;3.20;;
64210;SDS011;50528;48.514;14.394;2022-08-04T02:27:39;7.50;;;3.40;;
64210;SDS011;50528;48.514;14.394;2022-08-04T02:29:05;5.70;;;3.20;;
64210;SDS011;50528;48.514;14.394;2022-08-04T02:30:36;5.20;;;3.20;;
64210;SDS011;50528;48.514;14.394;2022-08-04T02:31:51;5.10;;;3.50;;
64210;SDS011;50528;48.514;14.394;2022-08-04T02:33:01;6.20;;;3.00;;
64210;SDS011;50528;48.514;14.394;2022-08-04T02:34:10;3.80;;;3.20;;
64210;SDS011;50528;48.514;14.394;2022-08-04T02:35:17;3.80;;;3.00;;
64210;SDS011;50528;48.514;14.394;2022-08-04T02:36:30;4.50;;;3.10;;
64210;SDS011;50528;48.514;14.394;2022-08-04T02:37:37;7.20;;;3.50;;
64210;SDS011;50528;48.514;14.394;2022-08-04T02:39:52;5.50;;;3.00;;
64210;SDS011;50528;48.514;14.394;2022-08-04T02:40:56;5.50;;;3.30;;
64210;SDS011;50528;48.514;14.394;2022-08-04T02:42:03;6.00;;;3.60;;
64210;SDS011;50528;48.514;14.394;2022-08-04T02:43:10;7.30;;;3.70;;
64210;SDS011;50528;48.514;14.394;2022-08-04T02:44:19;4.70;;;3.30;;
64210;SDS011;50528;48.514;14.394;2022-08-04T02:45:26;4.90;;;3.40;;
64210;SDS011;50528;48.514;14.394;2022-08-04T02:46:35;4.70;;;3.30;;
64210;SDS011;50528;48.514;14.394;2022-08-04T02:47:40;4.50;;;3.40;;
64210;SDS011;50528;48.514;14.394;2022-08-04T02:49:07;5.40;;;3.10;;
64210;SDS011;50528;48.514;14.394;2022-08-04T02:50:11;3.60;;;3.10;;
64210;SDS011;50528;48.514;14.394;2022-08-04T02:51:40;4.60;;;3.40;;
64210;SDS011;50528;48.514;14.394;2022-08-04T02:52:44;4.90;;;3.50;;
64210;SDS011;50528;48.514;14.394;2022-08-04T02:53:52;4.20;;;3.70;;
64210;SDS011;50528;48.514;14.394;2022-08-04T02:54:57;4.00;;;3.30;;
64210;SDS011;50528;48.514;14.394;2022-08-04T02:56:05;5.20;;;3.30;;
64210;SDS011;50528;48.514;14.394;2022-08-04T02:57:10;14.20;;;3.80;;
64210;SDS011;50528;48.514;14.394;2022-08-04T02:58:15;5.40;;;3.20;;
64210;SDS011;50528;48.514;14.394;2022-08-04T02:59:25;7.50;;;3.30;;
64210;SDS011;50528;48.514;14.394;2022-08-04T03:00:31;4.90;;;3.60;;
64210;SDS011;50528;48.514;14.394;2022-08-04T03:01:35;4.20;;;3.10;;
64210;SDS011;50528;48.514;14.394;2022-08-04T03:02:56;6.20;;;3.40;;
64210;SDS011;50528;48.514;14.394;2022-08-04T03:29:03;5.10;;;3.30;;
64210;SDS011;50528;48.514;14.394;2022-08-04T03:30:50;4.90;;;3.20;;
64210;SDS011;50528;48.514;14.394;2022-08-04T03:40:05;5.40;;;3.30;;
64210;SDS011;50528;48.514;14.394;2022-08-04T04:01:56;5.20;;;3.40;;
64210;SDS011;50528;48.514;14.394;2022-08-04T04:06:00;5.10;;;3.50;;
64210;SDS011;50528;48.514;14.394;2022-08-04T04:10:38;4.90;;;3.60;;
64210;SDS011;50528;48.514;14.394;2022-08-04T04:28:52;6.00;;;4.30;;
64210;SDS011;50528;48.514;14.394;2022-08-04T04:30:22;6.70;;;4.20;;
64210;SDS011;50528;48.514;14.394;2022-08-04T04:33:01;9.20;;;4.50;;
64210;SDS011;50528;48.514;14.394;2022-08-04T04:34:25;6.10;;;4.10;;
64210;SDS011;50528;48.514;14.394;2022-08-04T04:42:52;7.10;;;4.90;;
64210;SDS011;50528;48.514;14.394;2022-08-04T04:43:44;6.20;;;5.10;;
64210;SDS011;50528;48.514;14.394;2022-08-04T04:49:28;6.40;;;4.80;;
64210;SDS011;50528;48.514;14.394;2022-08-04T04:51:11;6.70;;;5.00;;
64210;SDS011;50528;48.514;14.394;2022-08-04T04:54:02;6.40;;;5.20;;
64210;SDS011;50528;48.514;14.394;2022-08-04T04:55:40;5.80;;;5.00;;
64210;SDS011;50528;48.514;14.394;2022-08-04T04:57:34;5.90;;;5.00;;
64210;SDS011;50528;48.514;14.394;2022-08-04T04:58:21;6.40;;;5.10;;
64210;SDS011;50528;48.514;14.394;2022-08-04T04:59:26;6.30;;;5.20;;
64210;SDS011;50528;48.514;14.394;2022-08-04T05:11:51;8.20;;;4.50;;
64210;SDS011;50528;48.514;14.394;2022-08-04T05:15:09;6.80;;;4.70;;
64210;SDS011;50528;48.514;14.394;2022-08-04T05:16:34;5.20;;;4.70;;
64210;SDS011;50528;48.514;14.394;2022-08-04T05:17:42;6.20;;;4.70;;
64210;SDS011;50528;48.514;14.394;2022-08-04T05:19:02;5.70;;;4.70;;
64210;SDS011;50528;48.514;14.394;2022-08-04T05:20:38;6.00;;;4.90;;
64210;SDS011;50528;48.514;14.394;2022-08-04T05:23:22;7.70;;;4.80;;
64210;SDS011;50528;48.514;14.394;2022-08-04T05:24:30;6.00;;;4.80;;
64210;SDS011;50528;48.514;14.394;2022-08-04T05:25:38;5.40;;;4.60;;
64210;SDS011;50528;48.514;14.394;2022-08-04T05:27:02;7.70;;;4.80;;
64210;SDS011;50528;48.514;14.394;2022-08-04T05:28:16;6.80;;;4.90;;
64210;SDS011;50528;48.514;14.394;2022-08-04T05:29:25;7.40;;;4.90;;
64210;SDS011;50528;48.514;14.394;2022-08-04T05:30:34;8.20;;;5.00;;
64210;SDS011;50528;48.514;14.394;2022-08-04T05:31:41;6.50;;;4.90;;
64210;SDS011;50528;48.514;14.394;2022-08-04T05:32:57;8.50;;;5.00;;
64210;SDS011;50528;48.514;14.394;2022-08-04T05:34:10;6.40;;;5.10;;
64210;SDS011;50528;48.514;14.394;2022-08-04T05:35:51;6.80;;;5.20;;
64210;SDS011;50528;48.514;14.394;2022-08-04T05:37:09;8.20;;;5.60;;
64210;SDS011;50528;48.514;14.394;2022-08-04T05:38:17;6.60;;;5.50;;
64210;SDS011;50528;48.514;14.394;2022-08-04T05:39:24;8.50;;;5.30;;
64210;SDS011;50528;48.514;14.394;2022-08-04T05:40:36;8.90;;;5.30;;
64210;SDS011;50528;48.514;14.394;2022-08-04T05:41:42;5.40;;;4.90;;
64210;SDS011;50528;48.514;14.394;2022-08-04T05:42:56;7.60;;;4.90;;
64210;SDS011;50528;48.514;14.394;2022-08-04T05:44:02;5.80;;;5.20;;
64210;SDS011;50528;48.514;14.394;2022-08-04T05:45:06;6.00;;;4.20;;
64210;SDS011;50528;48.514;14.394;2022-08-04T05:46:10;4.80;;;4.10;;
64210;SDS011;50528;48.514;14.394;2022-08-04T05:47:17;4.40;;;3.80;;
64210;SDS011;50528;48.514;14.394;2022-08-04T05:48:23;5.50;;;3.60;;
64210;SDS011;50528;48.514;14.394;2022-08-04T05:49:28;5.70;;;3.80;;
64210;SDS011;50528;48.514;14.394;2022-08-04T05:50:32;5.00;;;3.80;;
64210;SDS011;50528;48.514;14.394;2022-08-04T05:51:38;5.20;;;3.70;;
64210;SDS011;50528;48.514;14.394;2022-08-04T05:52:45;5.70;;;3.80;;
64210;SDS011;50528;48.514;14.394;2022-08-04T05:54:02;5.60;;;3.80;;
64210;SDS011;50528;48.514;14.394;2022-08-04T05:55:10;5.60;;;4.00;;
64210;SDS011;50528;48.514;14.394;2022-08-04T05:56:34;6.10;;;3.80;;
64210;SDS011;50528;48.514;14.394;2022-08-04T05:57:39;6.90;;;3.70;;
64210;SDS011;50528;48.514;14.394;2022-08-04T05:58:43;7.70;;;3.70;;
64210;SDS011;50528;48.514;14.394;2022-08-04T05:59:48;5.60;;;4.10;;
64210;SDS011;50528;48.514;14.394;2022-08-04T06:00:53;4.30;;;3.50;;
64210;SDS011;50528;48.514;14.394;2022-08-04T06:01:57;4.30;;;3.70;;
64210;SDS011;50528;48.514;14.394;2022-08-04T06:03:02;4.80;;;3.40;;
64210;SDS011;50528;48.514;14.394;2022-08-04T06:04:06;6.00;;;3.90;;
64210;SDS011;50528;48.514;14.394;2022-08-04T06:05:13;6.00;;;3.70;;
64210;SDS011;50528;48.514;14.394;2022-08-04T06:06:19;5.90;;;3.60;;
64210;SDS011;50528;48.514;14.394;2022-08-04T06:07:29;6.30;;;3.90;;
64210;SDS011;50528;48.514;14.394;2022-08-04T06:08:32;4.70;;;3.80;;
64210;SDS011;50528;48.514;14.394;2022-08-04T06:09:35;4.30;;;3.40;;
64210;SDS011;50528;48.514;14.394;2022-08-04T06:10:39;7.50;;;3.80;;
64210;SDS011;50528;48.514;14.394;2022-08-04T06:11:44;5.20;;;3.60;;
64210;SDS011;50528;48.514;14.394;2022-08-04T06:13:06;7.80;;;3.50;;
64210;SDS011;50528;48.514;14.394;2022-08-04T06:14:43;4.40;;;3.60;;
64210;SDS011;50528;48.514;14.394;2022-08-04T06:15:48;4.90;;;3.40;;
64210;SDS011;50528;48.514;14.394;2022-08-04T06:16:53;4.30;;;3.50;;
64210;SDS011;50528;48.514;14.394;2022-08-04T06:18:03;4.90;;;3.60;;
64210;SDS011;50528;48.514;14.394;2022-08-04T06:19:32;6.40;;;3.40;;
64210;SDS011;50528;48.514;14.394;2022-08-04T06:20:58;6.60;;;4.00;;
64210;SDS011;50528;48.514;14.394;2022-08-04T06:22:17;5.50;;;3.60;;
64210;SDS011;50528;48.514;14.394;2022-08-04T06:23:26;5.40;;;3.70;;
64210;SDS011;50528;48.514;14.394;2022-08-04T06:24:32;5.60;;;3.60;;
64210;SDS011;50528;48.514;14.394;2022-08-04T06:25:49;6.70;;;3.80;;
64210;SDS011;50528;48.514;14.394;2022-08-04T06:26:57;4.00;;;3.50;;
64210;SDS011;50528;48.514;14.394;2022-08-04T06:28:01;5.10;;;3.60;;
64210;SDS011;50528;48.514;14.394;2022-08-04T06:29:08;5.30;;;3.60;;
64210;SDS011;50528;48.514;14.394;2022-08-04T06:30:22;4.90;;;3.50;;
64210;SDS011;50528;48.514;14.394;2022-08-04T06:31:30;5.60;;;3.50;;
64210;SDS011;50528;48.514;14.394;2022-08-04T06:33:05;5.50;;;3.60;;
64210;SDS011;50528;48.514;14.394;2022-08-04T06:34:29;4.70;;;3.20;;
64210;SDS011;50528;48.514;14.394;2022-08-04T06:35:34;4.30;;;3.40;;
64210;SDS011;50528;48.514;14.394;2022-08-04T06:36:39;6.70;;;3.80;;
64210;SDS011;50528;48.514;14.394;2022-08-04T06:37:44;7.20;;;3.20;;
64210;SDS011;50528;48.514;14.394;2022-08-04T06:38:52;4.40;;;3.30;;
64210;SDS011;50528;48.514;14.394;2022-08-04T06:40:01;4.30;;;3.10;;
64210;SDS011;50528;48.514;14.394;2022-08-04T06:41:27;5.70;;;3.40;;
64210;SDS011;50528;48.514;14.394;2022-08-04T06:42:33;4.70;;;3.10;;
64210;SDS011;50528;48.514;14.394;2022-08-04T06:43:39;4.00;;;3.20;;
64210;SDS011;50528;48.514;14.394;2022-08-04T06:44:45;5.20;;;3.40;;
64210;SDS011;50528;48.514;14.394;2022-08-04T06:45:54;4.40;;;3.20;;
64210;SDS011;50528;48.514;14.394;2022-08-04T06:47:00;5.00;;;3.30;;
64210;SDS011;50528;48.514;14.394;2022-08-04T06:48:06;4.00;;;3.00;;
64210;SDS011;50528;48.514;14.394;2022-08-04T06:49:10;4.20;;;2.90;;
64210;SDS011;50528;48.514;14.394;2022-08-04T06:50:15;3.90;;;3.10;;
64210;SDS011;50528;48.514;14.394;2022-08-04T06:51:40;4.10;;;3.00;;
64210;SDS011;50528;48.514;14.394;2022-08-04T06:52:50;4.40;;;2.80;;
64210;SDS011;50528;48.514;14.394;2022-08-04T06:53:53;5.30;;;2.90;;
64210;SDS011;50528;48.514;14.394;2022-08-04T06:54:57;4.40;;;2.90;;
64210;SDS011;50528;48.514;14.394;2022-08-04T06:56:00;3.90;;;2.80;;
64210;SDS011;50528;48.514;14.394;2022-08-04T06:57:04;4.90;;;2.90;;
64210;SDS011;50528;48.514;14.394;2022-08-04T06:58:07;6.50;;;2.90;;
64210;SDS011;50528;48.514;14.394;2022-08-04T06:59:12;5.10;;;2.50;;
64210;SDS011;50528;48.514;14.394;2022-08-04T07:00:18;5.60;;;2.80;;
64210;SDS011;50528;48.514;14.394;2022-08-04T07:01:21;6.50;;;2.80;;
64210;SDS011;50528;48.514;14.394;2022-08-04T07:02:27;6.00;;;2.60;;
64210;SDS011;50528;48.514;14.394;2022-08-04T07:03:35;4.70;;;2.60;;
64210;SDS011;50528;48.514;14.394;2022-08-04T07:04:39;3.80;;;2.60;;
64210;SDS011;50528;48.514;14.394;2022-08-04T07:05:48;4.60;;;2.40;;
64210;SDS011;50528;48.514;14.394;2022-08-04T07:06:53;3.50;;;2.60;;
64210;SDS011;50528;48.514;14.394;2022-08-04T07:07:57;4.60;;;2.50;;
64210;SDS011;50528;48.514;14.394;2022-08-04T07:09:04;4.30;;;2.70;;
64210;SDS011;50528;48.514;14.394;2022-08-04T07:10:08;7.70;;;2.60;;
64210;SDS011;50528;48.514;14.394;2022-08-04T07:11:12;5.50;;;2.80;;
64210;SDS011;50528;48.514;14.394;2022-08-04T07:12:16;6.00;;;2.70;;
64210;SDS011;50528;48.514;14.394;2022-08-04T07:13:23;4.50;;;2.50;;
64210;SDS011;50528;48.514;14.394;2022-08-04T07:14:28;4.10;;;2.50;;
64210;SDS011;50528;48.514;14.394;2022-08-04T07:15:33;5.50;;;2.60;;
64210;SDS011;50528;48.514;14.394;2022-08-04T07:16:38;3.20;;;2.60;;
64210;SDS011;50528;48.514;14.394;2022-08-04T07:17:43;3.70;;;2.50;;
64210;SDS011;50528;48.514;14.394;2022-08-04T07:18:53;3.40;;;2.40;;
64210;SDS011;50528;48.514;14.394;2022-08-04T07:20:01;4.10;;;2.20;;
64210;SDS011;50528;48.514;14.394;2022-08-04T07:21:07;5.90;;;2.50;;
64210;SDS011;50528;48.514;14.394;2022-08-04T07:22:12;4.80;;;2.40;;
64210;SDS011;50528;48.514;14.394;2022-08-04T07:23:27;3.40;;;2.40;;
64210;SDS011;50528;48.514;14.394;2022-08-04T07:24:31;3.40;;;2.50;;
64210;SDS011;50528;48.514;14.394;2022-08-04T07:25:35;3.70;;;2.40;;
64210;SDS011;50528;48.514;14.394;2022-08-04T07:26:58;4.90;;;2.40;;
64210;SDS011;50528;48.514;14.394;2022-08-04T07:28:02;6.60;;;2.40;;
64210;SDS011;50528;48.514;14.394;2022-08-04T07:29:06;4.50;;;2.30;;
64210;SDS011;50528;48.514;14.394;2022-08-04T07:30:12;3.30;;;2.10;;
64210;SDS011;50528;48.514;14.394;2022-08-04T07:31:17;3.60;;;2.20;;
64210;SDS011;50528;48.514;14.394;2022-08-04T07:32:37;4.90;;;2.30;;
64210;SDS011;50528;48.514;14.394;2022-08-04T07:33:43;3.20;;;2.30;;
64210;SDS011;50528;48.514;14.394;2022-08-04T07:35:08;3.80;;;2.30;;
64210;SDS011;50528;48.514;14.394;2022-08-04T07:36:33;2.90;;;2.20;;
64210;SDS011;50528;48.514;14.394;2022-08-04T07:37:52;2.80;;;2.20;;
64210;SDS011;50528;48.514;14.394;2022-08-04T07:38:55;3.50;;;2.00;;
64210;SDS011;50528;48.514;14.394;2022-08-04T07:39:59;3.60;;;2.20;;
64210;SDS011;50528;48.514;14.394;2022-08-04T07:41:02;3.10;;;2.20;;
64210;SDS011;50528;48.514;14.394;2022-08-04T07:42:27;2.70;;;2.20;;
64210;SDS011;50528;48.514;14.394;2022-08-04T07:43:30;4.40;;;2.10;;
64210;SDS011;50528;48.514;14.394;2022-08-04T07:44:34;4.90;;;2.00;;
64210;SDS011;50528;48.514;14.394;2022-08-04T07:45:37;3.40;;;2.10;;
64210;SDS011;50528;48.514;14.394;2022-08-04T07:46:41;2.50;;;2.00;;
64210;SDS011;50528;48.514;14.394;2022-08-04T07:47:45;4.10;;;2.20;;
64210;SDS011;50528;48.514;14.394;2022-08-04T07:49:07;5.40;;;2.40;;
64210;SDS011;50528;48.514;14.394;2022-08-04T07:50:11;3.80;;;2.00;;
64210;SDS011;50528;48.514;14.394;2022-08-04T07:51:17;4.30;;;2.10;;
64210;SDS011;50528;48.514;14.394;2022-08-04T07:52:21;2.80;;;2.00;;
64210;SDS011;50528;48.514;14.394;2022-08-04T07:53:25;3.70;;;2.00;;
64210;SDS011;50528;48.514;14.394;2022-08-04T07:54:49;7.50;;;2.40;;
64210;SDS011;50528;48.514;14.394;2022-08-04T07:55:53;6.80;;;2.10;;
64210;SDS011;50528;48.514;14.394;2022-08-04T07:56:57;4.30;;;2.10;;
64210;SDS011;50528;48.514;14.394;2022-08-04T07:58:01;2.80;;;1.90;;
64210;SDS011;50528;48.514;14.394;2022-08-04T07:59:04;5.10;;;2.00;;
64210;SDS011;50528;48.514;14.394;2022-08-04T08:00:11;4.30;;;1.90;;
64210;SDS011;50528;48.514;14.394;2022-08-04T08:01:18;18.60;;;2.70;;
64210;SDS011;50528;48.514;14.394;2022-08-04T08:02:21;3.40;;;2.10;;
64210;SDS011;50528;48.514;14.394;2022-08-04T08:03:25;6.90;;;2.40;;
64210;SDS011;50528;48.514;14.394;2022-08-04T08:04:29;4.00;;;2.20;;
64210;SDS011;50528;48.514;14.394;2022-08-04T08:05:34;4.50;;;2.10;;
64210;SDS011;50528;48.514;14.394;2022-08-04T08:06:57;3.40;;;1.90;;
64210;SDS011;50528;48.514;14.394;2022-08-04T08:08:00;2.90;;;1.80;;
64210;SDS011;50528;48.514;14.394;2022-08-04T08:09:08;3.10;;;2.00;;
64210;SDS011;50528;48.514;14.394;2022-08-04T08:10:16;3.50;;;1.90;;
64210;SDS011;50528;48.514;14.394;2022-08-04T08:11:20;4.70;;;1.90;;
64210;SDS011;50528;48.514;14.394;2022-08-04T08:12:23;3.40;;;2.00;;
64210;SDS011;50528;48.514;14.394;2022-08-04T08:13:47;2.70;;;2.00;;
64210;SDS011;50528;48.514;14.394;2022-08-04T08:14:50;4.70;;;2.00;;
64210;SDS011;50528;48.514;14.394;2022-08-04T08:15:54;3.00;;;1.90;;
64210;SDS011;50528;48.514;14.394;2022-08-04T08:16:59;6.60;;;2.20;;
64210;SDS011;50528;48.514;14.394;2022-08-04T08:18:07;2.70;;;2.00;;
64210;SDS011;50528;48.514;14.394;2022-08-04T08:19:11;2.50;;;1.90;;
64210;SDS011;50528;48.514;14.394;2022-08-04T08:20:14;3.50;;;1.90;;
64210;SDS011;50528;48.514;14.394;2022-08-04T08:21:31;3.30;;;1.80;;
64210;SDS011;50528;48.514;14.394;2022-08-04T08:22:55;3.60;;;1.90;;
64210;SDS011;50528;48.514;14.394;2022-08-04T08:23:59;4.70;;;2.00;;
64210;SDS011;50528;48.514;14.394;2022-08-04T08:25:06;4.60;;;1.90;;
64210;SDS011;50528;48.514;14.394;2022-08-04T08:26:10;3.60;;;1.80;;
64210;SDS011;50528;48.514;14.394;2022-08-04T08:27:13;4.80;;;1.80;;
64210;SDS011;50528;48.514;14.394;2022-08-04T08:28:16;2.60;;;1.80;;
64210;SDS011;50528;48.514;14.394;2022-08-04T08:29:21;4.10;;;1.80;;
64210;SDS011;50528;48.514;14.394;2022-08-04T08:30:25;2.80;;;1.80;;
64210;SDS011;50528;48.514;14.394;2022-08-04T08:31:34;5.20;;;1.80;;
64210;SDS011;50528;48.514;14.394;2022-08-04T08:33:00;3.60;;;2.10;;
64210;SDS011;50528;48.514;14.394;2022-08-04T08:34:09;4.20;;;2.00;;
64210;SDS011;50528;48.514;14.394;2022-08-04T08:35:15;3.80;;;1.70;;
64210;SDS011;50528;48.514;14.394;2022-08-04T08:38:13;4.10;;;1.90;;
64210;SDS011;50528;48.514;14.394;2022-08-04T08:39:21;3.10;;;1.60;;
64210;SDS011;50528;48.514;14.394;2022-08-04T08:42:31;4.00;;;1.90;;
64210;SDS011;50528;48.514;14.394;2022-08-04T08:56:38;2.80;;;1.70;;
64210;SDS011;50528;48.514;14.394;2022-08-04T08:59:25;2.90;;;1.80;;
64210;SDS011;50528;48.514;14.394;2022-08-04T09:00:52;2.80;;;1.70;;
64210;SDS011;50528;48.514;14.394;2022-08-04T09:06:30;4.50;;;1.70;;
64210;SDS011;50528;48.514;14.394;2022-08-04T09:10:58;2.90;;;1.60;;
64210;SDS011;50528;48.514;14.394;2022-08-04T09:13:38;3.80;;;1.90;;
64210;SDS011;50528;48.514;14.394;2022-08-04T09:16:50;3.10;;;1.80;;
64210;SDS011;50528;48.514;14.394;2022-08-04T09:18:04;2.30;;;1.60;;
64210;SDS011;50528;48.514;14.394;2022-08-04T09:19:22;2.90;;;1.80;;
64210;SDS011;50528;48.514;14.394;2022-08-04T09:20:55;4.30;;;1.70;;
64210;SDS011;50528;48.514;14.394;2022-08-04T09:22:17;4.10;;;1.60;;
64210;SDS011;50528;48.514;14.394;2022-08-04T09:23:31;3.00;;;1.70;;
64210;SDS011;50528;48.514;14.394;2022-08-04T09:24:47;2.60;;;1.70;;
64210;SDS011;50528;48.514;14.394;2022-08-04T09:27:19;2.90;;;1.80;;
64210;SDS011;50528;48.514;14.394;2022-08-04T09:28:26;4.20;;;1.80;;
64210;SDS011;50528;48.514;14.394;2022-08-04T09:30:11;4.80;;;1.80;;
64210;SDS011;50528;48.514;14.394;2022-08-04T09:31:20;3.00;;;1.70;;
64210;SDS011;50528;48.514;14.394;2022-08-04T09:33:43;4.20;;;1.60;;
64210;SDS011;50528;48.514;14.394;2022-08-04T09:35:12;4.40;;;1.70;;
64210;SDS011;50528;48.514;14.394;2022-08-04T09:39:28;3.10;;;1.60;;
64210;SDS011;50528;48.514;14.394;2022-08-04T09:40:55;2.10;;;1.60;;
64210;SDS011;50528;48.514;14.394;2022-08-04T09:46:05;2.50;;;1.70;;
64210;SDS011;50528;48.514;14.394;2022-08-04T09:47:15;5.10;;;2.10;;
64210;SDS011;50528;48.514;14.394;2022-08-04T09:48:43;2.50;;;1.80;;
64210;SDS011;50528;48.514;14.394;2022-08-04T09:54:37;3.20;;;1.80;;
64210;SDS011;50528;48.514;14.394;2022-08-04T09:59:56;5.80;;;2.20;;
64210;SDS011;50528;48.514;14.394;2022-08-04T10:01:05;2.80;;;1.80;;
64210;SDS011;50528;48.514;14.394;2022-08-04T10:02:12;5.20;;;1.90;;
64210;SDS011;50528;48.514;14.394;2022-08-04T10:03:17;4.00;;;1.90;;
64210;SDS011;50528;48.514;14.394;2022-08-04T10:04:23;3.60;;;1.70;;
64210;SDS011;50528;48.514;14.394;2022-08-04T10:05:41;3.00;;;1.90;;
64210;SDS011;50528;48.514;14.394;2022-08-04T10:08:53;2.50;;;1.80;;
64210;SDS011;50528;48.514;14.394;2022-08-04T10:11:23;3.00;;;1.90;;
64210;SDS011;50528;48.514;14.394;2022-08-04T10:24:14;2.80;;;1.80;;
64210;SDS011;50528;48.514;14.394;2022-08-04T10:27:16;4.00;;;1.70;;
64210;SDS011;50528;48.514;14.394;2022-08-04T10:28:27;3.10;;;1.90;;
64210;SDS011;50528;48.514;14.394;2022-08-04T10:29:37;3.70;;;2.20;;
64210;SDS011;50528;48.514;14.394;2022-08-04T10:30:49;2.60;;;1.90;;
64210;SDS011;50528;48.514;14.394;2022-08-04T10:33:22;4.30;;;2.10;;
64210;SDS011;50528;48.514;14.394;2022-08-04T10:34:30;3.60;;;1.90;;
64210;SDS011;50528;48.514;14.394;2022-08-04T10:36:05;2.80;;;1.90;;
64210;SDS011;50528;48.514;14.394;2022-08-04T10:37:20;3.90;;;2.00;;
64210;SDS011;50528;48.514;14.394;2022-08-04T10:39:02;4.20;;;2.00;;
64210;SDS011;50528;48.514;14.394;2022-08-04T10:40:21;4.50;;;1.60;;
64210;SDS011;50528;48.514;14.394;2022-08-04T10:41:49;3.70;;;2.00;;
64210;SDS011;50528;48.514;14.394;2022-08-04T10:44:45;2.60;;;1.80;;
64210;SDS011;50528;48.514;14.394;2022-08-04T10:46:10;3.40;;;2.00;;